Time;durP1;ratioP1;P1;durP2;ratioP2;P2;SDS_P1;SDS_P2;PMS_P1;PMS_P2;Temp;Humidity;BMP_temperature;BMP_pressure;BME280_temperature;BME280_humidity;BME280_pressure;Samples;Min_cycle;Max_cycle;Signal;HPM_P1;HPM_P2
2021/12/29 00:00:21;;;;;;;3.65;1.05;;;;;;;;;;5052154;28;20029;-53
2021/12/29 00:02:47;;;;;;;3.22;0.90;;;;;;;;;;5037867;28;20033;-53
2021/12/29 00:05:13;;;;;;;1.80;0.77;;;;;;;;;;5032257;28;20387;-56
2021/12/29 00:07:39;;;;;;;5.13;0.75;;;;;;;;;;5032111;28;20029;-56
2021/12/29 00:10:05;;;;;;;4.95;1.27;;;;;;;;;;5031639;28;20032;-53
2021/12/29 00:12:39;;;;;;;2.38;0.90;;;;;;;;;;5031760;28;20049;-54
2021/12/29 00:15:05;;;;;;;3.80;0.70;;;;;;;;;;5032280;28;20384;-56
2021/12/29 00:17:31;;;;;;;4.00;1.40;;;;;;;;;;5032090;28;20025;-56
2021/12/29 00:19:57;;;;;;;3.15;1.02;;;;;;;;;;5031527;28;20426;-53
2021/12/29 00:22:23;;;;;;;4.00;0.40;;;;;;;;;;5031764;28;20037;-53
2021/12/29 00:24:49;;;;;;;1.45;0.60;;;;;;;;;;5032083;28;20468;-54
2021/12/29 00:27:15;;;;;;;4.25;0.75;;;;;;;;;;5031996;28;20044;-54
2021/12/29 00:29:41;;;;;;;2.63;0.65;;;;;;;;;;5031617;28;20026;-54
2021/12/29 00:32:07;;;;;;;2.35;0.65;;;;;;;;;;5032025;28;20463;-52
2021/12/29 00:34:33;;;;;;;3.67;0.88;;;;;;;;;;5030654;28;20116;-51
2021/12/29 00:36:59;;;;;;;4.40;0.93;;;;;;;;;;5031963;28;20443;-52
2021/12/29 00:39:25;;;;;;;2.05;0.40;;;;;;;;;;5031250;28;20364;-52
2021/12/29 00:41:50;;;;;;;1.42;0.73;;;;;;;;;;5031731;28;20032;-54
2021/12/29 00:44:16;;;;;;;4.25;1.35;;;;;;;;;;5035906;28;20442;-54
2021/12/29 00:46:43;;;;;;;1.35;0.32;;;;;;;;;;5036317;28;20026;-52
2021/12/29 00:49:09;;;;;;;1.45;0.70;;;;;;;;;;5035274;28;20025;-55
2021/12/29 00:51:35;;;;;;;2.50;1.13;;;;;;;;;;5036272;28;20038;-54
2021/12/29 00:54:01;;;;;;;1.73;0.40;;;;;;;;;;5035501;28;20131;-55
2021/12/29 00:56:27;;;;;;;1.48;0.55;;;;;;;;;;5040095;28;20079;-55
2021/12/29 00:58:53;;;;;;;0.65;0.40;;;;;;;;;;5055226;28;20033;-53
2021/12/29 01:01:19;;;;;;;0.77;0.50;;;;;;;;;;5053160;28;20029;-56
2021/12/29 01:03:46;;;;;;;3.72;0.73;;;;;;;;;;5035600;28;20050;-56
2021/12/29 01:06:12;;;;;;;5.88;1.00;;;;;;;;;;5035597;28;20124;-55
2021/12/29 01:08:38;;;;;;;4.00;0.70;;;;;;;;;;5034729;28;20111;-56
2021/12/29 01:11:05;;;;;;;1.33;0.30;;;;;;;;;;5035596;28;20422;-56
2021/12/29 01:13:33;;;;;;;2.88;1.17;;;;;;;;;;5035473;28;20021;-52
2021/12/29 01:18:32;;;;;;;0.40;0.20;;;;;;;;;;5034947;28;20379;-54
2021/12/29 01:20:58;;;;;;;5.13;0.95;;;;;;;;;;5035894;28;20040;-56
2021/12/29 01:23:24;;;;;;;0.63;0.25;;;;;;;;;;5034952;28;20025;-56
2021/12/29 01:25:50;;;;;;;6.55;0.95;;;;;;;;;;5035465;28;20387;-55
2021/12/29 01:28:16;;;;;;;1.13;0.35;;;;;;;;;;5034791;28;20029;-51
2021/12/29 01:30:43;;;;;;;2.60;0.80;;;;;;;;;;5035196;28;20028;-53
2021/12/29 01:33:09;;;;;;;6.47;0.85;;;;;;;;;;5035111;28;20021;-54
2021/12/29 01:35:36;;;;;;;2.90;0.75;;;;;;;;;;5035423;28;20034;-54
2021/12/29 01:38:02;;;;;;;1.25;0.45;;;;;;;;;;5034219;28;20805;-56
2021/12/29 01:40:28;;;;;;;1.67;0.50;;;;;;;;;;5035168;28;20088;-56
2021/12/29 01:42:54;;;;;;;4.10;0.88;;;;;;;;;;5034939;28;20049;-56
2021/12/29 01:45:20;;;;;;;3.95;0.98;;;;;;;;;;5034921;28;20045;-56
2021/12/29 01:47:46;;;;;;;1.15;0.38;;;;;;;;;;5034646;28;20029;-57
2021/12/29 01:50:13;;;;;;;3.38;0.50;;;;;;;;;;5034860;28;20515;-56
2021/12/29 01:52:41;;;;;;;2.80;0.47;;;;;;;;;;5034426;28;20434;-56
2021/12/29 01:55:11;;;;;;;1.40;0.50;;;;;;;;;;5034216;28;20159;-55
2021/12/29 01:57:37;;;;;;;1.17;0.32;;;;;;;;;;5048233;28;20104;-52
2021/12/29 02:00:05;;;;;;;2.58;0.43;;;;;;;;;;5053925;28;20036;-56
2021/12/29 02:02:31;;;;;;;1.85;0.57;;;;;;;;;;5042342;28;20029;-54
2021/12/29 02:04:57;;;;;;;0.55;0.45;;;;;;;;;;5034131;28;20051;-53
2021/12/29 02:07:23;;;;;;;3.85;0.57;;;;;;;;;;5034574;28;20026;-56
2021/12/29 02:09:49;;;;;;;3.88;0.30;;;;;;;;;;5033735;28;20032;-55
2021/12/29 02:12:16;;;;;;;0.57;0.22;;;;;;;;;;5034458;28;20495;-53
2021/12/29 02:14:42;;;;;;;0.82;0.30;;;;;;;;;;5034282;28;20087;-56
2021/12/29 02:17:09;;;;;;;1.40;0.38;;;;;;;;;;5034280;28;20423;-55
2021/12/29 02:19:42;;;;;;;0.50;0.10;;;;;;;;;;5033513;28;20176;-54
2021/12/29 02:22:09;;;;;;;0.73;0.30;;;;;;;;;;5034428;28;20063;-56
2021/12/29 02:24:44;;;;;;;0.68;0.30;;;;;;;;;;5033906;28;20068;-55
2021/12/29 02:27:13;;;;;;;0.57;0.22;;;;;;;;;;5034379;28;20033;-55
2021/12/29 02:29:40;;;;;;;0.40;0.20;;;;;;;;;;5033324;28;20025;-55
2021/12/29 02:32:07;;;;;;;0.20;0.10;;;;;;;;;;5033831;28;20063;-54
2021/12/29 02:34:33;;;;;;;0.28;0.10;;;;;;;;;;5034258;28;20098;-55
2021/12/29 02:37:02;;;;;;;1.13;0.43;;;;;;;;;;5033982;28;20029;-55
2021/12/29 02:39:31;;;;;;;0.55;0.20;;;;;;;;;;5033076;28;20030;-57
2021/12/29 02:41:57;;;;;;;1.73;0.28;;;;;;;;;;5033874;28;20034;-53
2021/12/29 02:44:27;;;;;;;1.00;0.70;;;;;;;;;;5033468;28;20407;-52
2021/12/29 02:46:55;;;;;;;0.55;0.13;;;;;;;;;;5033959;28;20107;-56
2021/12/29 02:49:21;;;;;;;2.28;0.40;;;;;;;;;;5033233;28;20052;-55
2021/12/29 02:51:48;;;;;;;0.93;0.22;;;;;;;;;;5033777;28;20029;-56
2021/12/29 02:54:16;;;;;;;0.00;0.00;;;;;;;;;;5033441;28;20037;-56
2021/12/29 02:56:41;;;;;;;0.57;0.30;;;;;;;;;;5039368;28;20322;-55
2021/12/29 02:59:07;;;;;;;0.70;0.40;;;;;;;;;;5052683;28;20578;-54
2021/12/29 03:01:33;;;;;;;0.30;0.10;;;;;;;;;;5049352;28;20359;-56
2021/12/29 03:04:00;;;;;;;0.25;0.17;;;;;;;;;;5033417;28;20027;-53
2021/12/29 03:06:26;;;;;;;0.70;0.22;;;;;;;;;;5032587;28;20072;-52
2021/12/29 03:08:52;;;;;;;2.67;0.30;;;;;;;;;;5032701;28;20025;-50
2021/12/29 03:11:18;;;;;;;1.65;0.25;;;;;;;;;;5032915;28;20425;-56
2021/12/29 03:13:44;;;;;;;0.57;0.20;;;;;;;;;;5032103;28;20102;-50
2021/12/29 03:16:11;;;;;;;0.90;0.32;;;;;;;;;;5033407;28;20118;-54
2021/12/29 03:18:37;;;;;;;0.40;0.10;;;;;;;;;;5032617;28;20030;-52
2021/12/29 03:21:04;;;;;;;1.95;0.20;;;;;;;;;;5033045;28;20030;-53
2021/12/29 03:23:31;;;;;;;0.40;0.20;;;;;;;;;;5032935;28;20093;-52
2021/12/29 03:25:57;;;;;;;0.17;0.13;;;;;;;;;;5032739;28;20088;-51
2021/12/29 03:28:24;;;;;;;0.20;0.10;;;;;;;;;;5032115;28;20470;-52
2021/12/29 03:30:52;;;;;;;0.25;0.10;;;;;;;;;;5032848;28;20356;-54
2021/12/29 03:33:19;;;;;;;0.17;0.10;;;;;;;;;;5032757;28;20036;-52
2021/12/29 03:35:46;;;;;;;0.30;0.13;;;;;;;;;;5032714;28;20121;-55
2021/12/29 03:38:17;;;;;;;0.35;0.10;;;;;;;;;;5032242;28;20421;-52
2021/12/29 03:40:45;;;;;;;0.75;0.38;;;;;;;;;;5032570;28;20336;-52
2021/12/29 03:43:12;;;;;;;0.20;0.10;;;;;;;;;;5032525;28;20037;-55
2021/12/29 03:45:38;;;;;;;0.95;0.25;;;;;;;;;;5032587;28;20041;-53
2021/12/29 03:48:05;;;;;;;0.75;0.05;;;;;;;;;;5032001;28;20041;-52
2021/12/29 03:50:31;;;;;;;0.38;0.22;;;;;;;;;;5032401;28;20467;-53
2021/12/29 03:52:57;;;;;;;0.13;0.00;;;;;;;;;;5032299;28;20030;-53
2021/12/29 03:55:23;;;;;;;1.25;0.32;;;;;;;;;;5032106;28;20033;-56
2021/12/29 03:57:49;;;;;;;0.65;0.22;;;;;;;;;;5046691;28;20513;-54
2021/12/29 04:00:16;;;;;;;0.43;0.03;;;;;;;;;;5052323;28;20058;-55
2021/12/29 04:02:42;;;;;;;0.10;0.00;;;;;;;;;;5038714;28;20040;-56
2021/12/29 04:05:09;;;;;;;0.30;0.10;;;;;;;;;;5032072;28;20076;-54
2021/12/29 04:07:35;;;;;;;1.75;0.45;;;;;;;;;;5032158;28;20108;-56
2021/12/29 04:10:02;;;;;;;0.35;0.13;;;;;;;;;;5031310;28;20113;-54
2021/12/29 04:12:28;;;;;;;1.63;0.40;;;;;;;;;;5032164;28;20024;-54
2021/12/29 04:14:54;;;;;;;0.22;0.10;;;;;;;;;;5031868;28;20033;-55
2021/12/29 04:17:25;;;;;;;0.38;0.20;;;;;;;;;;5031986;28;20055;-55
2021/12/29 04:22:36;;;;;;;1.30;0.47;;;;;;;;;;5032076;28;20040;-56
2021/12/29 04:25:02;;;;;;;0.65;0.20;;;;;;;;;;5031866;28;20034;-56
2021/12/29 04:27:28;;;;;;;0.70;0.30;;;;;;;;;;5032131;28;20113;-54
2021/12/29 04:29:54;;;;;;;1.92;0.40;;;;;;;;;;5031571;28;20069;-51
2021/12/29 04:32:20;;;;;;;2.65;0.50;;;;;;;;;;5024454;28;20025;-55
2021/12/29 04:34:46;;;;;;;2.42;0.75;;;;;;;;;;5031845;28;20390;-55
2021/12/29 04:37:12;;;;;;;1.92;0.55;;;;;;;;;;5050776;28;20025;-56
2021/12/29 04:39:38;;;;;;;1.48;0.30;;;;;;;;;;5050859;28;20029;-54
2021/12/29 04:42:04;;;;;;;0.73;0.32;;;;;;;;;;5051629;28;20128;-54
2021/12/29 04:44:30;;;;;;;1.92;0.35;;;;;;;;;;5049654;28;20494;-54
2021/12/29 04:46:57;;;;;;;0.63;0.30;;;;;;;;;;5051580;28;20087;-56
2021/12/29 04:49:28;;;;;;;0.45;0.20;;;;;;;;;;5050750;28;20029;-55
2021/12/29 04:52:03;;;;;;;1.40;0.40;;;;;;;;;;5051901;28;20059;-55
2021/12/29 04:54:32;;;;;;;1.40;0.40;;;;;;;;;;5051712;28;20033;-54
2021/12/29 04:56:59;;;;;;;1.50;0.40;;;;;;;;;;5051681;28;20529;-55
2021/12/29 04:59:27;;;;;;;0.85;0.38;;;;;;;;;;5050869;28;20455;-57
2021/12/29 05:01:53;;;;;;;1.85;0.65;;;;;;;;;;5047742;28;20363;-56
2021/12/29 05:04:22;;;;;;;2.17;0.30;;;;;;;;;;5050826;28;20124;-56
2021/12/29 05:09:34;;;;;;;2.58;0.63;;;;;;;;;;5051174;28;20436;-56
2021/12/29 05:12:01;;;;;;;0.57;0.10;;;;;;;;;;5051581;28;20450;-55
2021/12/29 05:14:27;;;;;;;0.70;0.15;;;;;;;;;;5051099;28;20072;-56
2021/12/29 05:16:53;;;;;;;1.48;0.63;;;;;;;;;;5051485;28;20071;-55
2021/12/29 05:19:19;;;;;;;2.13;0.40;;;;;;;;;;5050469;28;20021;-55
2021/12/29 05:21:45;;;;;;;3.60;0.38;;;;;;;;;;5051542;28;20095;-56
2021/12/29 05:24:11;;;;;;;5.32;0.60;;;;;;;;;;5051219;28;20060;-55
2021/12/29 05:26:38;;;;;;;2.97;0.60;;;;;;;;;;5051400;28;20037;-55
2021/12/29 05:29:04;;;;;;;1.48;0.65;;;;;;;;;;5052152;28;20029;-55
2021/12/29 05:31:30;;;;;;;0.95;0.55;;;;;;;;;;5052107;28;20476;-55
2021/12/29 05:33:56;;;;;;;2.28;0.43;;;;;;;;;;5054816;28;20048;-56
2021/12/29 05:36:23;;;;;;;1.95;0.75;;;;;;;;;;5054874;28;20127;-54
2021/12/29 05:38:49;;;;;;;0.47;0.20;;;;;;;;;;5054368;28;20025;-54
2021/12/29 05:41:15;;;;;;;0.82;0.50;;;;;;;;;;5055212;28;20036;-56
2021/12/29 05:43:41;;;;;;;2.28;0.57;;;;;;;;;;5054583;28;20028;-56
2021/12/29 05:46:09;;;;;;;1.60;0.32;;;;;;;;;;5054810;28;20040;-54
2021/12/29 05:48:35;;;;;;;1.92;0.60;;;;;;;;;;5053882;28;20029;-56
2021/12/29 05:51:01;;;;;;;1.38;0.45;;;;;;;;;;5054565;28;20095;-55
2021/12/29 05:53:27;;;;;;;1.98;0.57;;;;;;;;;;5054541;28;20025;-56
2021/12/29 05:55:53;;;;;;;2.97;0.95;;;;;;;;;;5054487;28;20056;-54
2021/12/29 05:58:19;;;;;;;0.40;0.20;;;;;;;;;;5053710;28;20453;-57
2021/12/29 06:00:45;;;;;;;1.55;0.40;;;;;;;;;;5053831;28;20456;-55
2021/12/29 06:03:11;;;;;;;2.25;0.57;;;;;;;;;;5046114;28;20067;-56
2021/12/29 06:05:38;;;;;;;1.67;0.50;;;;;;;;;;5054428;28;20543;-55
2021/12/29 06:08:04;;;;;;;3.72;0.52;;;;;;;;;;5053529;28;20035;-52
2021/12/29 06:10:30;;;;;;;2.42;0.47;;;;;;;;;;5054254;28;20017;-54
2021/12/29 06:12:56;;;;;;;5.63;0.80;;;;;;;;;;5053905;28;20029;-55
2021/12/29 06:15:22;;;;;;;4.07;0.40;;;;;;;;;;5054294;28;20029;-56
2021/12/29 06:17:48;;;;;;;0.82;0.57;;;;;;;;;;5053408;28;20098;-56
2021/12/29 06:20:15;;;;;;;2.10;0.70;;;;;;;;;;5054372;28;20110;-56
2021/12/29 06:22:42;;;;;;;0.52;0.25;;;;;;;;;;5053945;28;20033;-56
2021/12/29 06:25:11;;;;;;;1.25;0.85;;;;;;;;;;5053953;28;20037;-56
2021/12/29 06:27:37;;;;;;;1.05;0.60;;;;;;;;;;5053808;28;20074;-55
2021/12/29 06:30:04;;;;;;;0.95;0.30;;;;;;;;;;5052845;28;20111;-56
2021/12/29 06:32:30;;;;;;;2.22;0.55;;;;;;;;;;5053787;28;20035;-56
2021/12/29 06:34:56;;;;;;;2.35;0.60;;;;;;;;;;5054034;28;20037;-56
2021/12/29 06:37:22;;;;;;;3.35;0.82;;;;;;;;;;5053799;28;20048;-56
2021/12/29 06:39:49;;;;;;;2.15;0.30;;;;;;;;;;5052078;28;20390;-54
2021/12/29 06:42:15;;;;;;;3.97;0.73;;;;;;;;;;5053288;28;20544;-54
2021/12/29 06:44:42;;;;;;;0.65;0.38;;;;;;;;;;5053224;28;20339;-53
2021/12/29 06:47:08;;;;;;;0.82;0.60;;;;;;;;;;5053609;28;20021;-55
2021/12/29 06:49:34;;;;;;;5.55;1.30;;;;;;;;;;5053075;28;20036;-56
2021/12/29 06:52:01;;;;;;;0.63;0.35;;;;;;;;;;5053637;28;20033;-56
2021/12/29 06:54:27;;;;;;;1.02;0.35;;;;;;;;;;5053239;28;20071;-54
2021/12/29 06:56:53;;;;;;;3.00;0.65;;;;;;;;;;5053284;28;20033;-54
2021/12/29 06:59:19;;;;;;;3.17;0.75;;;;;;;;;;5052466;28;20040;-51
2021/12/29 07:01:45;;;;;;;1.05;0.20;;;;;;;;;;5052971;28;20025;-54
2021/12/29 07:04:11;;;;;;;1.85;0.50;;;;;;;;;;5053159;28;20492;-54
2021/12/29 07:06:37;;;;;;;1.23;0.45;;;;;;;;;;5053150;28;20041;-56
2021/12/29 07:09:03;;;;;;;1.85;0.93;;;;;;;;;;5052278;28;20048;-54
2021/12/29 07:11:29;;;;;;;3.53;1.00;;;;;;;;;;5053243;28;20052;-55
2021/12/29 07:13:58;;;;;;;0.77;0.32;;;;;;;;;;5052804;28;20029;-54
2021/12/29 07:16:24;;;;;;;2.22;0.80;;;;;;;;;;5053026;28;20056;-54
2021/12/29 07:18:50;;;;;;;1.80;0.60;;;;;;;;;;5052291;28;20418;-55
2021/12/29 07:21:16;;;;;;;1.95;0.80;;;;;;;;;;5053438;28;20429;-56
2021/12/29 07:23:42;;;;;;;0.32;0.20;;;;;;;;;;5052506;28;20024;-56
2021/12/29 07:26:08;;;;;;;3.53;0.43;;;;;;;;;;5052703;28;20040;-56
2021/12/29 07:28:34;;;;;;;1.35;0.40;;;;;;;;;;5051948;28;20516;-55
2021/12/29 07:31:00;;;;;;;3.67;0.63;;;;;;;;;;5052696;28;20037;-55
2021/12/29 07:33:26;;;;;;;1.17;0.70;;;;;;;;;;5052555;28;20105;-56
2021/12/29 07:35:52;;;;;;;1.33;0.68;;;;;;;;;;5052699;28;20037;-56
2021/12/29 07:38:18;;;;;;;1.02;0.40;;;;;;;;;;5051845;28;20061;-55
2021/12/29 07:40:44;;;;;;;1.10;0.43;;;;;;;;;;5050740;28;20025;-55
2021/12/29 07:43:10;;;;;;;5.63;0.70;;;;;;;;;;5052399;28;20033;-55
2021/12/29 07:45:36;;;;;;;2.00;0.40;;;;;;;;;;5052511;28;20079;-55
2021/12/29 07:48:04;;;;;;;0.93;0.45;;;;;;;;;;5051750;28;20033;-53
2021/12/29 07:50:31;;;;;;;2.67;0.98;;;;;;;;;;5052524;28;20381;-55
2021/12/29 07:52:57;;;;;;;3.13;0.93;;;;;;;;;;5051646;28;20040;-54
2021/12/29 07:55:22;;;;;;;1.92;0.60;;;;;;;;;;5051907;28;20339;-55
2021/12/29 07:57:49;;;;;;;2.40;0.60;;;;;;;;;;5051823;28;20043;-55
2021/12/29 08:00:16;;;;;;;1.05;0.30;;;;;;;;;;5052147;28;20037;-56
2021/12/29 08:02:44;;;;;;;2.42;1.08;;;;;;;;;;5048538;28;20040;-55
2021/12/29 08:05:11;;;;;;;2.17;1.05;;;;;;;;;;5052048;28;20037;-57
2021/12/29 08:07:37;;;;;;;1.10;0.40;;;;;;;;;;5049604;28;20112;-56
2021/12/29 08:10:04;;;;;;;1.80;0.55;;;;;;;;;;5050012;28;20025;-56
2021/12/29 08:12:29;;;;;;;3.13;0.95;;;;;;;;;;5040762;28;20034;-57
2021/12/29 08:14:55;;;;;;;0.90;0.43;;;;;;;;;;5050632;28;20398;-56
2021/12/29 08:17:21;;;;;;;1.35;0.70;;;;;;;;;;5051417;28;20028;-56
2021/12/29 08:19:50;;;;;;;1.35;0.55;;;;;;;;;;5051067;28;20029;-53
2021/12/29 08:22:16;;;;;;;0.88;0.45;;;;;;;;;;5051438;28;20442;-56
2021/12/29 08:24:42;;;;;;;0.93;0.50;;;;;;;;;;5051862;28;20116;-55
2021/12/29 08:27:08;;;;;;;1.40;0.75;;;;;;;;;;5051971;28;20028;-52
2021/12/29 08:29:34;;;;;;;2.53;0.68;;;;;;;;;;5051058;28;20431;-56
2021/12/29 08:32:00;;;;;;;2.33;0.47;;;;;;;;;;5051603;28;20078;-56
2021/12/29 08:34:26;;;;;;;2.22;0.60;;;;;;;;;;5051371;28;20036;-55
2021/12/29 08:36:52;;;;;;;1.33;0.50;;;;;;;;;;5051699;28;20053;-56
2021/12/29 08:39:21;;;;;;;1.45;0.50;;;;;;;;;;5050954;28;20459;-53
2021/12/29 08:41:48;;;;;;;5.28;0.77;;;;;;;;;;5051707;28;20033;-52
2021/12/29 08:44:14;;;;;;;1.77;0.50;;;;;;;;;;5051642;28;20029;-54
2021/12/29 08:46:40;;;;;;;2.70;1.05;;;;;;;;;;5048705;28;20147;-56
2021/12/29 08:49:07;;;;;;;0.95;0.50;;;;;;;;;;5048687;28;20029;-57
2021/12/29 08:51:33;;;;;;;1.75;0.80;;;;;;;;;;5051662;28;20484;-57
2021/12/29 08:53:59;;;;;;;3.38;1.10;;;;;;;;;;5051390;28;20055;-55
2021/12/29 08:56:25;;;;;;;1.27;0.93;;;;;;;;;;5051464;28;20454;-56
2021/12/29 08:58:52;;;;;;;3.50;1.00;;;;;;;;;;5050866;28;20040;-54
2021/12/29 09:01:19;;;;;;;1.75;0.75;;;;;;;;;;5051316;28;20066;-56
2021/12/29 09:03:45;;;;;;;4.03;1.20;;;;;;;;;;5052389;28;20501;-56
2021/12/29 09:06:11;;;;;;;2.53;0.80;;;;;;;;;;5055579;28;20037;-55
2021/12/29 09:08:38;;;;;;;3.30;0.88;;;;;;;;;;5052817;28;20434;-57
2021/12/29 09:11:04;;;;;;;2.25;0.85;;;;;;;;;;5054806;28;20017;-56
2021/12/29 09:13:30;;;;;;;1.92;0.77;;;;;;;;;;5055185;28;20035;-54
2021/12/29 09:15:57;;;;;;;1.60;0.63;;;;;;;;;;5055694;28;20532;-56
2021/12/29 09:18:24;;;;;;;1.98;0.95;;;;;;;;;;5049794;28;20101;-54
2021/12/29 09:20:52;;;;;;;0.98;0.47;;;;;;;;;;5053556;28;20488;-55
2021/12/29 09:23:19;;;;;;;2.22;1.45;;;;;;;;;;5046855;28;20083;-53
2021/12/29 09:25:47;;;;;;;3.65;1.30;;;;;;;;;;5035464;28;20360;-56
2021/12/29 09:28:14;;;;;;;1.58;0.95;;;;;;;;;;5050246;28;20370;-56
2021/12/29 09:30:42;;;;;;;5.32;1.38;;;;;;;;;;5054389;28;20029;-56
2021/12/29 09:33:08;;;;;;;1.42;0.45;;;;;;;;;;5054824;28;20086;-56
2021/12/29 09:35:34;;;;;;;2.90;1.48;;;;;;;;;;5052317;28;20038;-56
2021/12/29 09:38:00;;;;;;;1.13;0.60;;;;;;;;;;5052886;28;20098;-54
2021/12/29 09:40:26;;;;;;;3.08;1.02;;;;;;;;;;5051959;28;20107;-53
2021/12/29 09:42:53;;;;;;;2.70;1.15;;;;;;;;;;5054932;28;20444;-51
2021/12/29 09:45:20;;;;;;;4.18;1.55;;;;;;;;;;5054720;28;20115;-55
2021/12/29 09:47:46;;;;;;;2.90;2.00;;;;;;;;;;5054637;28;20092;-56
2021/12/29 09:50:15;;;;;;;2.97;1.20;;;;;;;;;;5054852;28;20017;-55
2021/12/29 09:52:41;;;;;;;2.85;1.20;;;;;;;;;;5054984;28;20421;-54
2021/12/29 09:55:09;;;;;;;3.10;1.08;;;;;;;;;;5054366;28;20391;-56
2021/12/29 09:57:36;;;;;;;1.45;0.90;;;;;;;;;;5054394;28;20047;-54
2021/12/29 10:00:07;;;;;;;4.82;2.72;;;;;;;;;;5053672;28;20029;-56
2021/12/29 10:02:32;;;;;;;;;;;;;;;;;;5052171;28;20029;-56
2021/12/29 10:04:59;;;;;;;7.38;1.33;;;;;;;;;;5054611;28;20119;-56
2021/12/29 10:07:26;;;;;;;5.22;1.00;;;;;;;;;;5054735;28;20105;-55
2021/12/29 10:09:52;;;;;;;2.70;1.33;;;;;;;;;;5052277;28;20036;-55
2021/12/29 10:12:21;;;;;;;3.08;1.50;;;;;;;;;;5053471;28;20032;-57
2021/12/29 10:14:57;;;;;;;1.95;1.08;;;;;;;;;;5051495;28;20037;-56
2021/12/29 10:17:27;;;;;;;4.28;1.48;;;;;;;;;;5053396;28;20029;-52
2021/12/29 10:20:04;;;;;;;4.53;1.80;;;;;;;;;;5035112;28;20544;-56
2021/12/29 10:22:30;;;;;;;1.75;0.95;;;;;;;;;;5051306;28;20029;-57
2021/12/29 10:25:10;;;;;;;2.88;1.05;;;;;;;;;;5054193;28;20037;-56
2021/12/29 10:27:36;;;;;;;1.05;0.63;;;;;;;;;;5050511;28;20037;-54
2021/12/29 10:30:04;;;;;;;3.67;0.65;;;;;;;;;;5033379;28;20030;-54
2021/12/29 10:32:30;;;;;;;4.05;1.50;;;;;;;;;;5032292;28;20025;-52
2021/12/29 10:34:56;;;;;;;4.38;0.80;;;;;;;;;;5034076;28;20041;-54
2021/12/29 10:37:23;;;;;;;1.45;0.77;;;;;;;;;;5053655;28;20081;-57
2021/12/29 10:39:51;;;;;;;1.35;0.57;;;;;;;;;;5053228;28;20032;-52
2021/12/29 10:42:19;;;;;;;4.55;1.35;;;;;;;;;;5054018;28;20041;-55
2021/12/29 10:45:03;;;;;;;3.47;1.48;;;;;;;;;;5050858;28;20033;-54
2021/12/29 10:47:31;;;;;;;2.92;1.15;;;;;;;;;;5047930;28;20029;-56
2021/12/29 10:49:58;;;;;;;4.43;1.85;;;;;;;;;;5049901;28;20112;-55
2021/12/29 10:52:47;;;;;;;1.20;0.70;;;;;;;;;;5051145;28;20048;-54
2021/12/29 10:55:19;;;;;;;4.10;1.25;;;;;;;;;;5033037;28;20049;-54
2021/12/29 10:57:46;;;;;;;3.40;1.10;;;;;;;;;;5050072;28;20048;-55
2021/12/29 11:00:15;;;;;;;2.40;0.98;;;;;;;;;;5053029;28;20025;-53
2021/12/29 11:02:43;;;;;;;4.00;1.00;;;;;;;;;;5053142;28;20029;-54
2021/12/29 11:05:11;;;;;;;3.55;1.30;;;;;;;;;;5053314;28;20048;-54
2021/12/29 11:07:38;;;;;;;5.15;1.35;;;;;;;;;;5053490;28;20025;-56
2021/12/29 11:10:17;;;;;;;2.78;1.00;;;;;;;;;;5044381;28;20121;-57
2021/12/29 11:12:53;;;;;;;1.50;1.00;;;;;;;;;;5033241;28;20375;-57
2021/12/29 11:15:22;;;;;;;1.67;0.88;;;;;;;;;;5036319;28;20156;-56
2021/12/29 11:17:48;;;;;;;2.47;0.98;;;;;;;;;;5041452;28;20033;-54
2021/12/29 11:20:18;;;;;;;3.30;0.80;;;;;;;;;;5033652;28;20033;-55
2021/12/29 11:22:44;;;;;;;2.38;0.68;;;;;;;;;;5051572;28;20021;-57
2021/12/29 11:25:10;;;;;;;5.80;1.17;;;;;;;;;;5052761;28;20039;-55
2021/12/29 11:27:36;;;;;;;2.92;0.88;;;;;;;;;;5052192;28;20471;-55
2021/12/29 11:30:05;;;;;;;2.15;1.10;;;;;;;;;;5051672;28;20470;-54
2021/12/29 11:32:34;;;;;;;4.55;1.42;;;;;;;;;;5059809;28;20083;-48
2021/12/29 11:35:16;;;;;;;3.00;0.93;;;;;;;;;;5052765;28;20037;-54
2021/12/29 11:37:50;;;;;;;1.63;0.60;;;;;;;;;;5049470;28;20450;-53
2021/12/29 11:40:18;;;;;;;1.50;0.75;;;;;;;;;;5037270;28;20042;-54
2021/12/29 11:42:44;;;;;;;2.25;0.52;;;;;;;;;;5031658;28;20518;-52
2021/12/29 11:45:12;;;;;;;3.25;1.00;;;;;;;;;;5030608;28;20128;-53
2021/12/29 11:47:38;;;;;;;1.60;0.68;;;;;;;;;;5031755;28;20044;-56
2021/12/29 11:50:05;;;;;;;3.10;0.55;;;;;;;;;;5031208;28;20288;-55
2021/12/29 11:52:31;;;;;;;2.20;0.95;;;;;;;;;;5032187;28;20068;-57
2021/12/29 11:55:06;;;;;;;4.32;0.90;;;;;;;;;;5046296;28;20438;-57
2021/12/29 11:57:34;;;;;;;4.85;1.33;;;;;;;;;;5051823;28;20278;-55
2021/12/29 12:00:18;;;;;;;4.60;0.98;;;;;;;;;;5050597;28;20421;-52
2021/12/29 12:02:46;;;;;;;2.45;0.80;;;;;;;;;;5051540;28;20520;-57
2021/12/29 12:05:16;;;;;;;2.90;0.93;;;;;;;;;;5050988;28;20033;-56
2021/12/29 12:07:42;;;;;;;1.75;0.90;;;;;;;;;;5050764;28;20451;-56
2021/12/29 12:10:12;;;;;;;3.38;1.10;;;;;;;;;;5049815;28;20029;-54
2021/12/29 12:12:44;;;;;;;2.95;0.75;;;;;;;;;;5051274;28;20041;-51
2021/12/29 12:15:12;;;;;;;3.72;0.80;;;;;;;;;;5051875;28;20252;-55
2021/12/29 12:17:38;;;;;;;2.60;0.68;;;;;;;;;;5049601;28;20140;-55
2021/12/29 12:20:11;;;;;;;0.77;0.38;;;;;;;;;;5051362;28;20033;-54
2021/12/29 12:22:43;;;;;;;4.00;1.15;;;;;;;;;;5051756;28;20032;-56
2021/12/29 12:25:10;;;;;;;4.70;0.80;;;;;;;;;;5052074;28;20033;-55
2021/12/29 12:27:40;;;;;;;2.78;0.90;;;;;;;;;;5052052;28;20343;-55
2021/12/29 12:30:06;;;;;;;;;;;;;;;;;;5051840;28;20052;-54
2021/12/29 12:32:43;;;;;;;5.15;1.10;;;;;;;;;;5037456;28;20022;-52
2021/12/29 12:35:09;;;;;;;4.47;1.90;;;;;;;;;;5052088;28;20036;-56
2021/12/29 12:37:40;;;;;;;5.60;1.08;;;;;;;;;;5049763;28;20029;-56
2021/12/29 12:40:10;;;;;;;6.28;1.15;;;;;;;;;;5055624;28;20033;-55
2021/12/29 12:42:37;;;;;;;3.30;0.93;;;;;;;;;;5055978;28;20107;-54
2021/12/29 12:45:04;;;;;;;2.80;1.38;;;;;;;;;;5056230;28;20302;-53
2021/12/29 12:47:31;;;;;;;3.20;1.17;;;;;;;;;;5056243;28;20401;-55
2021/12/29 12:49:58;;;;;;;5.90;1.88;;;;;;;;;;5055575;28;20024;-53
2021/12/29 12:52:25;;;;;;;6.15;1.55;;;;;;;;;;5037176;28;20041;-52
2021/12/29 12:54:51;;;;;;;6.32;1.88;;;;;;;;;;5035595;28;20040;-54
2021/12/29 12:57:29;;;;;;;3.70;1.75;;;;;;;;;;5046696;28;20033;-54
2021/12/29 13:00:04;;;;;;;5.28;1.63;;;;;;;;;;5055465;28;20040;-56
2021/12/29 13:02:35;;;;;;;8.15;1.27;;;;;;;;;;5052247;28;20228;-56
2021/12/29 13:05:10;;;;;;;3.00;1.15;;;;;;;;;;5055004;28;20035;-55
2021/12/29 13:07:36;;;;;;;3.72;1.40;;;;;;;;;;5055328;28;20021;-51
2021/12/29 13:10:03;;;;;;;4.68;1.65;;;;;;;;;;5054580;28;20032;-52
2021/12/29 13:12:30;;;;;;;5.55;2.30;;;;;;;;;;5055138;28;20116;-57
2021/12/29 13:15:02;;;;;;;6.15;1.88;;;;;;;;;;5055409;28;20033;-56
2021/12/29 13:17:28;;;;;;;3.38;1.48;;;;;;;;;;5055216;28;20072;-56
2021/12/29 13:19:55;;;;;;;4.90;1.40;;;;;;;;;;5054581;28;20049;-55
2021/12/29 13:22:28;;;;;;;3.58;1.55;;;;;;;;;;5054573;28;20518;-55
2021/12/29 13:25:03;;;;;;;2.00;1.25;;;;;;;;;;5055129;28;20073;-53
2021/12/29 13:27:29;;;;;;;2.50;0.95;;;;;;;;;;5055376;28;20032;-55
2021/12/29 13:29:59;;;;;;;4.85;1.45;;;;;;;;;;5054493;28;20033;-55
2021/12/29 13:32:27;;;;;;;2.20;0.95;;;;;;;;;;5054978;28;20071;-54
2021/12/29 13:34:59;;;;;;;3.10;1.20;;;;;;;;;;5054701;28;20040;-57
2021/12/29 13:37:25;;;;;;;4.47;1.08;;;;;;;;;;5055192;28;20029;-56
2021/12/29 13:39:52;;;;;;;7.93;1.80;;;;;;;;;;5053767;28;20028;-57
2021/12/29 13:42:18;;;;;;;2.53;1.48;;;;;;;;;;5054746;28;20064;-52
2021/12/29 13:44:44;;;;;;;4.30;1.20;;;;;;;;;;5048320;28;20036;-53
2021/12/29 13:47:10;;;;;;;5.85;1.40;;;;;;;;;;5050838;28;20029;-52
2021/12/29 13:49:36;;;;;;;1.52;0.77;;;;;;;;;;5056324;28;20035;-52
2021/12/29 13:52:03;;;;;;;2.00;0.90;;;;;;;;;;5050891;28;20028;-56
2021/12/29 13:54:30;;;;;;;1.58;0.98;;;;;;;;;;5054387;28;20075;-55
2021/12/29 13:56:56;;;;;;;2.88;1.05;;;;;;;;;;5054424;28;20425;-55
2021/12/29 13:59:24;;;;;;;3.42;1.25;;;;;;;;;;5054669;28;20124;-55
2021/12/29 14:01:52;;;;;;;2.78;1.05;;;;;;;;;;5051248;28;20031;-56
2021/12/29 14:04:26;;;;;;;3.42;1.05;;;;;;;;;;5054629;28;20056;-56
2021/12/29 14:07:00;;;;;;;3.13;1.60;;;;;;;;;;5054456;28;20056;-54
2021/12/29 14:09:30;;;;;;;2.13;0.98;;;;;;;;;;5043045;28;20036;-54
2021/12/29 14:12:10;;;;;;;5.47;0.90;;;;;;;;;;5034423;28;20104;-55
2021/12/29 14:14:36;;;;;;;1.63;0.80;;;;;;;;;;5034741;28;20044;-54
2021/12/29 14:17:02;;;;;;;6.90;1.60;;;;;;;;;;5034456;28;20021;-56
2021/12/29 14:19:30;;;;;;;2.92;0.90;;;;;;;;;;5034104;28;20022;-56
2021/12/29 14:21:57;;;;;;;2.45;0.80;;;;;;;;;;5047229;28;20380;-56
2021/12/29 14:24:23;;;;;;;2.90;0.60;;;;;;;;;;5057591;28;20029;-56
2021/12/29 14:26:51;;;;;;;1.42;0.60;;;;;;;;;;5042685;28;20094;-55
2021/12/29 14:29:21;;;;;;;2.95;0.93;;;;;;;;;;5054936;28;20157;-55
2021/12/29 14:31:53;;;;;;;5.28;1.08;;;;;;;;;;5034429;28;20022;-56
2021/12/29 14:34:20;;;;;;;1.48;0.68;;;;;;;;;;5049078;28;20036;-56
2021/12/29 14:36:47;;;;;;;2.10;1.00;;;;;;;;;;5053965;28;20032;-56
2021/12/29 14:39:18;;;;;;;2.47;0.80;;;;;;;;;;5052608;28;20029;-56
2021/12/29 14:41:44;;;;;;;2.72;0.75;;;;;;;;;;5053612;28;20345;-57
2021/12/29 14:44:11;;;;;;;2.53;0.85;;;;;;;;;;5053482;28;20120;-55
2021/12/29 14:46:47;;;;;;;2.28;0.70;;;;;;;;;;5053051;28;20033;-56
2021/12/29 14:49:13;;;;;;;3.45;1.35;;;;;;;;;;5053046;28;20103;-54
2021/12/29 14:51:48;;;;;;;1.90;1.02;;;;;;;;;;5053119;28;20052;-55